Time;durP1;ratioP1;P1;durP2;ratioP2;P2;SDS_P1;SDS_P2;PMS_P1;PMS_P2;Temp;Humidity;BMP_temperature;BMP_pressure;BME280_temperature;BME280_humidity;BME280_pressure;Samples;Min_cycle;Max_cycle;Signal;HPM_P1;HPM_P2
2021/01/04 00:00:05;;;;;;;14.60;10.50;;;;;;;12.06;54.69;100508.47;4893146;28;98269;-61
2021/01/04 00:02:56;;;;;;;13.13;10.38;;;;;;;12.01;54.94;100514.72;4898210;28;98993;-61
2021/01/04 00:05:40;;;;;;;14.52;10.55;;;;;;;11.98;55.07;100505.25;4900596;28;98800;-61
2021/01/04 00:08:43;;;;;;;11.82;9.77;;;;;;;12.03;54.93;100507.97;4894455;28;97781;-61
2021/01/04 00:11:35;;;;;;;13.85;10.25;;;;;;;12.01;54.85;100502.00;4886676;28;98532;-61
2021/01/04 00:14:08;;;;;;;14.07;10.70;;;;;;;12.01;54.97;100504.72;4876063;28;105226;-61
2021/01/04 00:17:18;;;;;;;13.82;10.60;;;;;;;12.01;54.75;100501.22;4901753;28;98440;-61
2021/01/04 00:20:08;;;;;;;15.88;11.20;;;;;;;12.00;54.60;100507.69;4874770;28;98688;-61
2021/01/04 00:22:55;;;;;;;13.43;10.57;;;;;;;12.02;55.01;100503.66;4897003;28;99133;-62
2021/01/04 00:25:35;;;;;;;14.27;10.75;;;;;;;11.99;54.87;100506.91;4884223;28;98699;-61
2021/01/04 00:28:10;;;;;;;15.00;10.70;;;;;;;12.00;54.84;100510.41;4878112;28;98258;-61
2021/01/04 00:31:04;;;;;;;14.57;11.18;;;;;;;12.01;54.97;100501.22;4894753;28;107766;-61
2021/01/04 00:33:46;;;;;;;14.77;10.85;;;;;;;12.01;54.51;100501.22;4875435;28;98950;-61
2021/01/04 00:36:33;;;;;;;14.30;10.80;;;;;;;11.99;54.64;100498.78;4901576;28;121647;-61
2021/01/04 00:39:26;;;;;;;13.80;10.85;;;;;;;12.01;54.90;100499.31;4895848;28;101689;-61
2021/01/04 00:42:30;;;;;;;16.15;11.30;;;;;;;12.02;54.57;100505.53;4900543;28;97879;-61
2021/01/04 00:45:14;;;;;;;16.58;11.35;;;;;;;12.00;55.00;100507.69;4880305;28;98581;-61
2021/01/04 00:48:20;;;;;;;15.73;11.65;;;;;;;11.98;54.73;100510.66;4876788;28;98806;-62
2021/01/04 00:51:07;;;;;;;13.35;10.95;;;;;;;11.96;54.91;100507.44;4881426;28;98487;-61
2021/01/04 00:53:43;;;;;;;14.35;10.75;;;;;;;11.94;54.73;100509.59;4880767;28;97825;-61
2021/01/04 00:56:49;;;;;;;13.25;10.40;;;;;;;11.96;54.71;100512.03;4879990;28;99356;-62
2021/01/04 00:59:31;;;;;;;14.38;10.60;;;;;;;11.91;55.04;100512.06;4881833;28;98201;-61
2021/01/04 01:02:31;;;;;;;13.52;10.57;;;;;;;11.96;54.92;100518.25;4881105;28;98151;-61
2021/01/04 01:05:09;;;;;;;13.60;10.07;;;;;;;11.95;54.77;100524.75;4895704;28;97971;-61
2021/01/04 01:08:07;;;;;;;13.82;10.35;;;;;;;11.92;54.79;100525.28;4900144;28;97824;-61
2021/01/04 01:10:38;;;;;;;15.48;11.02;;;;;;;11.93;55.02;100529.59;4899736;28;98338;-61
2021/01/04 01:14:07;;;;;;;12.17;9.67;;;;;;;11.91;54.99;100534.47;4902374;28;100178;-61
2021/01/04 01:17:24;;;;;;;12.55;9.85;;;;;;;11.93;55.03;100528.78;4884498;28;98016;-61
2021/01/04 01:19:57;;;;;;;12.23;9.52;;;;;;;11.94;54.74;100530.41;4899930;28;117595;-61
2021/01/04 01:22:34;;;;;;;12.30;9.35;;;;;;;11.95;54.86;100523.94;4883314;28;109053;-62
2021/01/04 01:25:07;;;;;;;12.38;9.30;;;;;;;11.95;54.82;100529.34;4901171;28;97869;-61
2021/01/04 01:27:46;;;;;;;13.73;9.38;;;;;;;11.96;54.71;100537.16;4884279;28;98216;-61
2021/01/04 01:30:32;;;;;;;11.95;9.27;;;;;;;11.94;54.72;100531.22;4899536;28;118642;-61
2021/01/04 01:33:43;;;;;;;11.48;9.15;;;;;;;11.97;54.81;100527.16;4912378;28;99181;-61
2021/01/04 01:36:52;;;;;;;11.48;9.50;;;;;;;11.95;54.99;100527.44;4919151;28;98136;-62
2021/01/04 01:40:01;;;;;;;11.43;8.60;;;;;;;11.93;54.86;100529.59;4921553;28;97746;-61
2021/01/04 01:43:05;;;;;;;12.60;9.27;;;;;;;11.92;54.82;100528.00;4850963;28;99485;-62
2021/01/04 01:45:56;;;;;;;11.05;8.80;;;;;;;11.98;54.70;100528.78;4897668;28;98448;-61
2021/01/04 01:49:00;;;;;;;11.82;8.77;;;;;;;11.93;54.79;100529.59;4902477;28;98287;-61
2021/01/04 01:51:46;;;;;;;11.32;8.85;;;;;;;11.96;54.75;100530.94;4921343;28;97887;-61
2021/01/04 01:54:38;;;;;;;11.15;8.07;;;;;;;11.95;54.85;100530.16;4918457;28;98332;-61
2021/01/04 01:57:48;;;;;;;10.55;8.40;;;;;;;11.94;54.84;100533.09;4904019;28;98856;-62
2021/01/04 02:01:04;;;;;;;12.52;8.57;;;;;;;11.95;55.00;100534.75;4911946;28;98383;-61
2021/01/04 02:03:42;;;;;;;11.32;8.27;;;;;;;11.96;54.51;100525.53;4877128;28;97952;-61
2021/01/04 02:06:32;;;;;;;10.40;8.07;;;;;;;11.97;54.49;100524.47;4899852;28;98419;-61
2021/01/04 02:09:06;;;;;;;10.60;8.27;;;;;;;11.96;54.80;100536.34;4894588;28;98624;-61
2021/01/04 02:11:48;;;;;;;9.93;7.93;;;;;;;11.94;55.00;100531.22;4915732;28;120213;-61
2021/01/04 02:14:30;;;;;;;12.17;8.33;;;;;;;11.96;54.90;100530.94;4907402;28;98228;-61
2021/01/04 02:17:27;;;;;;;11.47;8.87;;;;;;;11.94;54.96;100533.91;4891092;28;99054;-61
2021/01/04 02:20:42;;;;;;;10.77;8.13;;;;;;;11.97;54.86;100537.97;4906894;28;99249;-61
2021/01/04 02:23:39;;;;;;;13.43;9.07;;;;;;;12.02;54.55;100538.78;4908657;28;98291;-61
2021/01/04 02:26:15;;;;;;;11.38;8.55;;;;;;;11.99;54.79;100539.31;4923972;28;97912;-61
2021/01/04 02:29:12;;;;;;;12.20;8.77;;;;;;;11.98;54.57;100536.88;4893159;28;98482;-62
2021/01/04 02:31:39;;;;;;;10.82;7.90;;;;;;;12.02;54.81;100535.25;4888502;28;98584;-61
2021/01/04 02:34:11;;;;;;;10.73;8.50;;;;;;;11.97;54.99;100538.78;4884904;28;118175;-61
2021/01/04 02:36:43;;;;;;;10.88;8.38;;;;;;;11.98;54.57;100540.38;4882453;28;106817;-62
2021/01/04 02:39:30;;;;;;;10.82;8.00;;;;;;;12.00;54.67;100532.03;4882369;28;117532;-61
2021/01/04 02:42:13;;;;;;;9.93;7.88;;;;;;;12.02;54.61;100538.78;4918549;28;99157;-62
2021/01/04 02:44:40;;;;;;;11.95;8.85;;;;;;;12.02;54.86;100533.38;4923091;28;98112;-62
2021/01/04 02:47:27;;;;;;;10.60;8.07;;;;;;;12.01;54.59;100544.44;4922435;28;98374;-62
2021/01/04 02:50:39;;;;;;;11.43;8.13;;;;;;;12.00;54.68;100537.41;4923017;28;99017;-62
2021/01/04 02:53:48;;;;;;;11.48;8.68;;;;;;;12.00;54.64;100540.13;4891553;28;98402;-62
2021/01/04 02:56:33;;;;;;;11.38;8.35;;;;;;;12.02;54.47;100546.88;4900536;28;99765;-61
2021/01/04 02:59:30;;;;;;;12.18;8.73;;;;;;;12.04;54.71;100538.50;4903103;28;98048;-61
2021/01/04 03:02:06;;;;;;;11.85;8.63;;;;;;;12.03;54.73;100539.59;4886155;28;99146;-61
2021/01/04 03:04:34;;;;;;;11.07;8.00;;;;;;;12.04;54.65;100536.59;4869979;28;98760;-62
2021/01/04 03:07:11;;;;;;;10.95;8.27;;;;;;;12.05;54.21;100532.00;4901862;28;106851;-62
2021/01/04 03:09:43;;;;;;;10.43;8.45;;;;;;;12.05;54.93;100534.69;4904364;28;97916;-61
2021/01/04 03:12:17;;;;;;;12.48;8.70;;;;;;;12.06;54.38;100528.19;4903918;28;98283;-61
2021/01/04 03:15:07;;;;;;;11.88;8.30;;;;;;;12.04;54.55;100527.69;4883966;28;98614;-62
2021/01/04 03:18:07;;;;;;;10.10;7.85;;;;;;;12.03;54.65;100528.78;4880439;28;99064;-61
2021/01/04 03:20:33;;;;;;;11.60;8.30;;;;;;;12.04;54.22;100531.19;4887091;28;99918;-61
2021/01/04 03:22:59;;;;;;;11.25;8.25;;;;;;;12.05;54.59;100526.59;4883622;28;128691;-62
2021/01/04 03:25:30;;;;;;;10.95;7.93;;;;;;;12.05;54.24;100537.41;4883718;28;128676;-62
2021/01/04 03:27:56;;;;;;;11.60;8.50;;;;;;;12.06;54.61;100535.50;4877407;28;113268;-62
2021/01/04 03:30:22;;;;;;;11.13;7.90;;;;;;;12.07;54.18;100526.34;4865338;28;103714;-61
2021/01/04 03:32:51;;;;;;;9.45;7.32;;;;;;;12.07;54.00;100531.72;4884271;28;98330;-62
2021/01/04 03:35:17;;;;;;;10.70;8.23;;;;;;;12.08;54.25;100530.66;4883369;28;128221;-62
2021/01/04 03:37:43;;;;;;;10.45;7.70;;;;;;;12.10;54.50;100525.75;4883049;28;126441;-61
2021/01/04 03:40:10;;;;;;;9.93;7.90;;;;;;;12.08;54.37;100536.06;4883131;28;116248;-62
2021/01/04 03:42:36;;;;;;;10.20;8.00;;;;;;;12.06;54.37;100530.91;4881536;28;99269;-62
2021/01/04 03:45:04;;;;;;;10.00;7.93;;;;;;;12.08;54.20;100531.44;4898681;28;115820;-61
2021/01/04 03:47:30;;;;;;;9.88;7.80;;;;;;;12.08;54.12;100530.66;4899178;28;102853;-61
2021/01/04 03:49:56;;;;;;;10.43;7.93;;;;;;;12.09;54.12;100529.56;4897582;28;118552;-61
2021/01/04 03:52:22;;;;;;;10.98;7.90;;;;;;;12.11;54.19;100532.81;4890908;28;126382;-61
2021/01/04 03:54:48;;;;;;;11.43;8.20;;;;;;;12.12;54.11;100529.00;4894855;28;125353;-61
2021/01/04 03:57:14;;;;;;;11.05;7.72;;;;;;;12.09;53.86;100527.66;4884485;28;97972;-62
2021/01/04 03:59:42;;;;;;;10.30;8.00;;;;;;;12.09;54.01;100532.25;4900580;28;117120;-61
2021/01/04 04:02:08;;;;;;;11.48;8.05;;;;;;;12.10;54.19;100540.06;4884627;28;112912;-62
2021/01/04 04:04:34;;;;;;;10.57;8.00;;;;;;;12.10;54.13;100541.97;4901537;28;126994;-61
2021/01/04 04:07:01;;;;;;;11.63;8.15;;;;;;;12.10;53.81;100533.88;4902769;28;98449;-61
2021/01/04 04:09:27;;;;;;;10.05;8.15;;;;;;;12.11;54.31;100543.59;4902954;28;98140;-62
2021/01/04 04:11:53;;;;;;;9.85;7.38;;;;;;;12.09;54.34;100530.34;4918455;28;98445;-62
2021/01/04 04:14:19;;;;;;;10.55;7.80;;;;;;;12.11;53.99;100533.59;4912844;28;128227;-62
2021/01/04 04:16:48;;;;;;;10.18;7.95;;;;;;;12.08;54.13;100538.75;4921623;28;108520;-62
2021/01/04 04:19:15;;;;;;;9.63;7.55;;;;;;;12.09;54.06;100537.66;4904267;28;97975;-62
2021/01/04 04:21:41;;;;;;;10.15;7.95;;;;;;;12.11;54.65;100543.59;4883779;28;100003;-61
2021/01/04 04:24:07;;;;;;;8.77;7.47;;;;;;;12.10;54.03;100539.25;4884124;28;104927;-62
2021/01/04 04:26:33;;;;;;;11.85;8.15;;;;;;;12.10;54.50;100550.88;4914246;28;130360;-62
2021/01/04 04:28:59;;;;;;;12.35;7.85;;;;;;;12.09;54.30;100543.88;4902749;28;118546;-62
2021/01/04 04:31:25;;;;;;;10.60;7.63;;;;;;;12.12;54.08;100547.91;4920400;28;129291;-62
2021/01/04 04:33:51;;;;;;;10.98;7.55;;;;;;;12.11;54.22;100549.00;4913196;28;109960;-62
2021/01/04 04:36:24;;;;;;;10.25;7.63;;;;;;;12.11;54.26;100544.41;4921756;28;104084;-62
2021/01/04 04:38:51;;;;;;;;;;;;;;;12.10;53.93;100550.06;4913934;28;97791;-62
2021/01/04 04:41:44;;;;;;;9.02;6.93;;;;;;;12.15;53.90;100544.69;4908083;28;98414;-62
2021/01/04 04:44:36;;;;;;;12.35;8.20;;;;;;;12.18;53.63;100544.94;4900649;28;98458;-61
2021/01/04 04:47:31;;;;;;;9.77;7.70;;;;;;;12.21;53.72;100552.47;4901175;28;98432;-62
2021/01/04 04:50:26;;;;;;;10.40;7.60;;;;;;;12.22;53.67;100558.69;4902367;28;98214;-62
2021/01/04 04:53:02;;;;;;;10.57;8.00;;;;;;;12.24;53.89;100551.13;4898848;28;114940;-61
2021/01/04 04:56:15;;;;;;;11.15;8.23;;;;;;;12.24;53.54;100556.53;4899849;28;99357;-62
2021/01/04 04:59:09;;;;;;;9.70;7.93;;;;;;;12.26;53.40;100560.56;4902074;28;98120;-62
2021/01/04 05:02:02;;;;;;;11.93;8.30;;;;;;;12.27;53.69;100555.97;4869284;28;98200;-62
2021/01/04 05:05:09;;;;;;;10.98;8.05;;;;;;;12.26;53.47;100554.34;4884942;28;116748;-62
2021/01/04 05:07:45;;;;;;;12.00;8.45;;;;;;;12.28;53.63;100560.28;4900697;28;98108;-61
2021/01/04 05:10:25;;;;;;;11.82;8.63;;;;;;;12.29;53.41;100559.19;4921701;28;98281;-62
2021/01/04 05:13:28;;;;;;;12.13;8.70;;;;;;;12.28;53.66;100558.38;4903371;28;98025;-62
2021/01/04 05:16:09;;;;;;;13.63;9.43;;;;;;;12.28;53.33;100550.28;4922627;28;100583;-62
2021/01/04 05:18:57;;;;;;;12.27;9.00;;;;;;;12.30;53.39;100560.84;4919115;28;104503;-62
2021/01/04 05:21:37;;;;;;;12.82;9.65;;;;;;;12.29;53.62;100561.91;4920120;28;97882;-62
2021/01/04 05:24:50;;;;;;;13.13;9.40;;;;;;;12.29;53.44;100559.19;4913354;28;98025;-62
2021/01/04 05:27:58;;;;;;;13.50;9.70;;;;;;;12.31;53.59;100558.94;4919841;28;99203;-62
2021/01/04 05:30:48;;;;;;;12.55;9.43;;;;;;;12.28;53.78;100558.38;4898609;28;98525;-62
2021/01/04 05:33:40;;;;;;;13.57;9.70;;;;;;;12.30;53.62;100555.44;4900090;28;104757;-62
2021/01/04 05:36:59;;;;;;;12.40;9.23;;;;;;;12.28;53.76;100558.38;4898617;28;107926;-62
2021/01/04 05:39:46;;;;;;;13.65;9.65;;;;;;;12.33;53.38;100562.16;4904246;28;98862;-62
2021/01/04 05:42:38;;;;;;;13.13;9.23;;;;;;;12.30;53.55;100555.44;4899750;28;98085;-62
2021/01/04 05:45:18;;;;;;;13.27;10.23;;;;;;;12.28;53.74;100555.69;4897364;28;98060;-62
2021/01/04 05:48:10;;;;;;;14.80;9.63;;;;;;;12.29;53.82;100562.72;4904455;28;97902;-62
2021/01/04 05:51:12;;;;;;;14.57;10.10;;;;;;;12.28;53.79;100554.88;4899277;28;99003;-62
2021/01/04 05:53:38;;;;;;;14.45;9.40;;;;;;;12.30;53.54;100558.13;4883387;28;114714;-62
2021/01/04 05:56:05;;;;;;;13.02;9.70;;;;;;;12.32;53.75;100557.84;4885552;28;98746;-62
2021/01/04 05:58:34;;;;;;;13.75;9.85;;;;;;;12.32;53.57;100555.94;4893929;28;107624;-62
2021/01/04 06:01:14;;;;;;;14.32;9.45;;;;;;;12.30;53.33;100563.53;4901869;28;98894;-62
2021/01/04 06:03:40;;;;;;;15.13;10.32;;;;;;;12.31;53.69;100557.03;4901435;28;98659;-62
2021/01/04 06:06:32;;;;;;;13.57;10.00;;;;;;;12.29;53.54;100562.72;4901814;28;98495;-62
2021/01/04 06:09:12;;;;;;;14.38;10.48;;;;;;;12.29;53.74;100557.31;4883745;28;97881;-62
2021/01/04 06:12:04;;;;;;;14.25;9.95;;;;;;;12.26;53.66;100560.56;4899626;28;116052;-62
2021/01/04 06:14:37;;;;;;;13.88;9.98;;;;;;;12.27;53.62;100561.38;4884149;28;99249;-62
2021/01/04 06:17:05;;;;;;;13.15;10.15;;;;;;;12.25;53.41;100558.94;4901097;28;128396;-62
2021/01/04 06:19:39;;;;;;;14.43;10.07;;;;;;;12.27;53.47;100559.47;4893192;28;99823;-62
2021/01/04 06:22:29;;;;;;;14.15;10.50;;;;;;;12.23;53.45;100555.72;4884146;28;119786;-62
2021/01/04 06:25:00;;;;;;;14.15;9.93;;;;;;;12.26;53.74;100560.56;4896239;28;98412;-62
2021/01/04 06:27:43;;;;;;;13.43;9.95;;;;;;;12.25;53.56;100558.94;4899407;28;98537;-62
2021/01/04 06:30:24;;;;;;;14.60;10.13;;;;;;;12.25;53.83;100556.22;4899977;28;98058;-62
2021/01/04 06:32:51;;;;;;;14.43;10.23;;;;;;;12.28;53.50;100569.22;4903065;28;99063;-62
2021/01/04 06:35:16;;;;;;;13.93;10.32;;;;;;;12.28;53.61;100565.69;4901230;28;128274;-62
2021/01/04 06:37:43;;;;;;;15.57;10.73;;;;;;;12.28;53.46;100571.91;4920770;28;100109;-62
2021/01/04 06:40:35;;;;;;;15.65;10.50;;;;;;;12.28;53.58;100579.22;4900342;28;106041;-62
2021/01/04 06:43:33;;;;;;;13.02;9.80;;;;;;;12.25;53.45;100579.75;4919170;28;98253;-62
2021/01/04 06:46:24;;;;;;;13.90;9.65;;;;;;;12.23;53.55;100581.94;4899441;28;98528;-62
2021/01/04 06:49:05;;;;;;;16.10;10.07;;;;;;;12.23;53.47;100579.22;4895756;28;98378;-62
2021/01/04 06:51:58;;;;;;;14.20;10.07;;;;;;;12.24;53.63;100584.34;4896044;28;112311;-62
2021/01/04 06:54:42;;;;;;;;;;;;;;;12.20;53.68;100579.78;4882770;28;98603;-62
2021/01/04 06:57:48;;;;;;;13.50;9.75;;;;;;;12.17;53.96;100583.84;4882375;28;106936;-62
2021/01/04 07:00:59;;;;;;;13.68;9.93;;;;;;;12.21;53.77;100584.09;4879367;28;116879;-62
2021/01/04 07:03:49;;;;;;;14.63;9.95;;;;;;;12.20;53.56;100582.47;4880235;28;97953;-62
2021/01/04 07:06:53;;;;;;;14.77;10.13;;;;;;;12.21;53.66;100589.50;4881872;28;115550;-62
2021/01/04 07:09:59;;;;;;;14.35;9.77;;;;;;;12.21;53.99;100603.00;4881910;28;99048;-62
2021/01/04 07:12:48;;;;;;;15.32;10.02;;;;;;;12.24;53.52;100597.06;4870551;28;116062;-62
2021/01/04 07:15:30;;;;;;;15.05;10.10;;;;;;;12.25;53.64;100601.38;4912453;28;98019;-62
2021/01/04 07:18:40;;;;;;;14.20;9.87;;;;;;;12.24;53.83;100605.16;4901838;28;98634;-62
2021/01/04 07:21:19;;;;;;;13.15;9.40;;;;;;;12.23;53.58;100606.25;4914863;28;120484;-62
2021/01/04 07:24:06;;;;;;;14.38;9.75;;;;;;;12.24;54.12;100610.56;4889612;28;120829;-62
2021/01/04 07:27:09;;;;;;;15.15;10.38;;;;;;;12.22;53.98;100612.72;4879265;28;98289;-62
2021/01/04 07:29:53;;;;;;;14.10;9.75;;;;;;;12.20;53.79;100614.91;4886908;28;98648;-62
2021/01/04 07:32:58;;;;;;;14.20;9.95;;;;;;;12.20;53.75;100610.31;4901181;28;98407;-62
2021/01/04 07:35:36;;;;;;;13.60;9.27;;;;;;;12.20;53.86;100615.72;4841550;28;98657;-62
2021/01/04 07:38:24;;;;;;;13.90;9.52;;;;;;;12.18;53.70;100617.06;4873188;28;97927;-62
2021/01/04 07:41:18;;;;;;;15.65;10.05;;;;;;;12.22;54.04;100623.53;4922519;28;98237;-62
2021/01/04 07:44:25;;;;;;;14.63;10.02;;;;;;;12.23;53.92;100625.19;4913471;28;99116;-62
2021/01/04 07:47:19;;;;;;;13.20;9.77;;;;;;;12.23;54.11;100620.56;4921552;28;98042;-62
2021/01/04 07:50:02;;;;;;;13.18;9.35;;;;;;;12.21;54.21;100620.03;4922417;28;97918;-62
2021/01/04 07:53:05;;;;;;;14.38;10.10;;;;;;;12.21;54.21;100636.25;4901693;28;98232;-62
2021/01/04 07:56:31;;;;;;;13.85;9.80;;;;;;;12.21;54.39;100632.75;4906274;28;98469;-62
2021/01/04 07:59:31;;;;;;;13.32;9.63;;;;;;;12.24;54.61;100637.59;4877489;28;98150;-62
2021/01/04 08:02:43;;;;;;;13.52;9.25;;;;;;;12.23;54.70;100638.69;4903726;28;98156;-62
2021/01/04 08:05:24;;;;;;;14.43;9.77;;;;;;;12.25;54.78;100642.72;4884852;28;98663;-62
2021/01/04 08:08:20;;;;;;;13.45;9.52;;;;;;;12.28;54.94;100635.97;4917625;28;98791;-62
2021/01/04 08:11:15;;;;;;;14.10;10.02;;;;;;;12.24;54.65;100646.50;4902061;28;98353;-62
2021/01/04 08:14:31;;;;;;;14.98;10.15;;;;;;;12.23;55.10;100644.91;4917728;28;98250;-62
2021/01/04 08:17:13;;;;;;;14.45;10.27;;;;;;;12.25;55.01;100650.03;4917966;28;98323;-62
2021/01/04 08:19:39;;;;;;;16.52;10.60;;;;;;;12.27;55.02;100654.09;4917293;28;104493;-62
2021/01/04 08:22:27;;;;;;;17.13;10.50;;;;;;;12.28;54.94;100652.19;4883383;28;126650;-62
2021/01/04 08:25:32;;;;;;;15.13;9.93;;;;;;;12.28;54.99;100649.47;4917158;28;98025;-62
2021/01/04 08:28:17;;;;;;;15.15;10.05;;;;;;;12.28;55.43;100647.59;4875588;28;98689;-62
2021/01/04 08:31:25;;;;;;;15.05;10.55;;;;;;;12.28;55.54;100649.47;4917593;28;98507;-62
2021/01/04 08:33:59;;;;;;;16.35;10.82;;;;;;;12.31;55.48;100640.84;4917242;28;98226;-62
2021/01/04 08:36:28;;;;;;;14.70;10.15;;;;;;;12.32;55.55;100652.44;4902099;28;98102;-62
2021/01/04 08:39:10;;;;;;;15.55;10.50;;;;;;;12.32;55.72;100653.25;4919073;28;109021;-62
2021/01/04 08:41:36;;;;;;;14.95;10.15;;;;;;;12.34;55.73;100655.66;4920034;28;98107;-62
2021/01/04 08:44:16;;;;;;;14.55;10.20;;;;;;;12.33;56.00;100662.16;4901073;28;103956;-62
2021/01/04 08:46:43;;;;;;;14.52;10.30;;;;;;;12.37;55.70;100664.03;4919991;28;98194;-62
2021/01/04 08:49:22;;;;;;;14.23;10.73;;;;;;;12.34;55.93;100663.78;4915519;28;98670;-62
2021/01/04 08:51:50;;;;;;;15.20;10.45;;;;;;;12.37;55.67;100650.53;4899451;28;98602;-62
2021/01/04 08:54:43;;;;;;;14.95;10.65;;;;;;;12.35;55.90;100658.13;4881888;28;98214;-62
2021/01/04 08:57:18;;;;;;;16.17;11.02;;;;;;;12.37;55.83;100657.84;4879441;28;103195;-62
2021/01/04 09:00:00;;;;;;;15.30;10.60;;;;;;;12.36;56.25;100661.63;4897277;28;113168;-62
2021/01/04 09:02:41;;;;;;;14.88;10.93;;;;;;;12.32;56.12;100661.38;4898470;28;116478;-62
2021/01/04 09:05:13;;;;;;;15.75;11.25;;;;;;;12.40;56.15;100662.69;4881646;28;98266;-62
2021/01/04 09:07:54;;;;;;;15.10;11.05;;;;;;;12.37;56.45;100665.94;4897841;28;97895;-62
2021/01/04 09:10:23;;;;;;;15.45;11.30;;;;;;;12.39;56.49;100666.50;4899535;28;98358;-62
2021/01/04 09:12:52;;;;;;;15.52;10.73;;;;;;;12.42;56.44;100669.47;4881394;28;98580;-62
2021/01/04 09:15:21;;;;;;;14.63;10.65;;;;;;;12.41;56.63;100673.22;4898631;28;98662;-62
2021/01/04 09:17:59;;;;;;;16.27;11.43;;;;;;;12.43;56.39;100664.84;4901291;28;97836;-62
2021/01/04 09:20:46;;;;;;;17.73;11.55;;;;;;;12.42;56.75;100672.16;4903526;28;98719;-62
2021/01/04 09:23:21;;;;;;;15.07;10.95;;;;;;;12.42;56.61;100674.88;4900561;28;99297;-63
2021/01/04 09:25:51;;;;;;;17.38;11.35;;;;;;;12.47;56.45;100666.72;4902413;28;98396;-62
2021/01/04 09:28:19;;;;;;;16.27;11.70;;;;;;;12.48;56.43;100664.84;4906303;28;98111;-62
2021/01/04 09:30:45;;;;;;;14.88;11.20;;;;;;;12.49;56.76;100669.97;4921519;28;98484;-62
2021/01/04 09:33:14;;;;;;;16.75;11.77;;;;;;;12.49;56.74;100671.84;4914069;28;107735;-61
2021/01/04 09:35:40;;;;;;;15.45;11.45;;;;;;;12.51;56.91;100667.81;4921795;28;98535;-62
2021/01/04 09:38:12;;;;;;;17.83;11.85;;;;;;;12.50;56.82;100663.50;4913999;28;118058;-62
2021/01/04 09:40:38;;;;;;;17.73;12.10;;;;;;;12.56;56.61;100666.16;4893748;28;98330;-62
2021/01/04 09:43:10;;;;;;;18.00;12.45;;;;;;;12.51;56.64;100659.69;4917736;28;99271;-62
2021/01/04 09:45:36;;;;;;;;;;;;;;;12.49;56.91;100661.84;4896406;28;98173;-62
2021/01/04 09:48:16;;;;;;;17.05;12.13;;;;;;;12.53;56.95;100660.22;4894420;28;98092;-62
2021/01/04 09:50:57;;;;;;;18.85;12.55;;;;;;;12.51;57.01;100656.19;4895180;28;117489;-62
2021/01/04 09:53:32;;;;;;;17.38;12.15;;;;;;;12.53;56.95;100660.22;4891074;28;116712;-62
2021/01/04 09:56:12;;;;;;;17.48;12.40;;;;;;;12.54;56.78;100652.94;4864907;28;97993;-62
2021/01/04 09:58:40;;;;;;;18.85;12.00;;;;;;;12.56;56.98;100652.66;4880086;28;106996;-62
2021/01/04 10:01:12;;;;;;;18.17;12.68;;;;;;;12.57;57.06;100655.06;4883233;28;98668;-62
2021/01/04 10:03:39;;;;;;;19.20;13.07;;;;;;;12.60;56.89;100649.09;4874755;28;113769;-62
2021/01/04 10:06:09;;;;;;;19.58;12.98;;;;;;;12.59;56.92;100655.63;4875110;28;98083;-62
2021/01/04 10:08:37;;;;;;;17.73;12.88;;;;;;;12.59;57.25;100662.91;4885017;28;98132;-62
2021/01/04 10:11:09;;;;;;;17.45;12.63;;;;;;;12.58;57.04;100656.72;4900736;28;104888;-62
2021/01/04 10:13:39;;;;;;;18.48;12.63;;;;;;;12.58;57.01;100655.91;4886062;28;99019;-62
2021/01/04 10:16:09;;;;;;;17.95;12.68;;;;;;;12.60;56.95;100662.63;4882781;28;98229;-62
2021/01/04 10:19:01;;;;;;;18.52;12.70;;;;;;;12.57;57.00;100656.97;4865830;28;98369;-62
2021/01/04 10:21:46;;;;;;;18.83;12.57;;;;;;;12.59;57.00;100660.22;4866346;28;99196;-62
2021/01/04 10:24:22;;;;;;;17.63;12.90;;;;;;;12.58;57.29;100659.41;4864777;28;99855;-62
2021/01/04 10:26:50;;;;;;;17.95;12.73;;;;;;;12.60;57.37;100662.63;4864979;28;97852;-62
2021/01/04 10:29:24;;;;;;;18.05;12.43;;;;;;;12.60;57.13;100656.41;4881857;28;97705;-63
2021/01/04 10:31:53;;;;;;;18.63;12.80;;;;;;;12.62;57.03;100651.56;4882941;28;98554;-62
2021/01/04 10:34:21;;;;;;;19.27;13.02;;;;;;;12.61;57.39;100658.84;4880771;28;98305;-62
2021/01/04 10:37:03;;;;;;;18.63;12.88;;;;;;;12.60;57.25;100653.72;4882118;28;98125;-62
2021/01/04 10:39:36;;;;;;;17.58;12.70;;;;;;;12.61;57.21;100652.63;4882509;28;98585;-63
2021/01/04 10:42:10;;;;;;;19.00;12.88;;;;;;;12.61;57.21;100647.22;4863200;28;128189;-62
2021/01/04 10:44:36;;;;;;;21.95;14.07;;;;;;;12.62;57.29;100641.53;4864517;28;99376;-62
2021/01/04 10:47:24;;;;;;;18.02;13.38;;;;;;;12.61;57.11;100641.81;4882909;28;126500;-62
2021/01/04 10:49:50;;;;;;;22.20;13.93;;;;;;;12.65;57.40;100632.84;4882883;28;105595;-62
2021/01/04 10:52:22;;;;;;;19.05;13.45;;;;;;;12.64;57.23;100631.25;4880711;28;128618;-62
2021/01/04 10:54:48;;;;;;;20.73;14.05;;;;;;;12.67;57.07;100636.09;4880717;28;98535;-62
2021/01/04 10:57:38;;;;;;;19.33;13.25;;;;;;;12.67;57.21;100632.59;4879326;28;128434;-62
2021/01/04 11:00:16;;;;;;;20.25;13.27;;;;;;;12.65;57.41;100638.25;4874264;28;104544;-62
2021/01/04 11:02:44;;;;;;;21.35;14.45;;;;;;;12.67;57.13;100630.69;4869068;28;98070;-62
2021/01/04 11:05:11;;;;;;;20.15;13.80;;;;;;;12.70;57.04;100624.75;4861474;28;105135;-62
2021/01/04 11:07:37;;;;;;;21.25;13.82;;;;;;;12.73;57.07;100626.06;4875516;28;110594;-62
2021/01/04 11:10:28;;;;;;;17.98;13.63;;;;;;;12.71;57.25;100620.94;4893486;28;105346;-62
2021/01/04 11:12:56;;;;;;;19.67;13.52;;;;;;;12.75;57.21;100624.72;4887461;28;98703;-62
2021/01/04 11:15:29;;;;;;;19.65;13.52;;;;;;;12.78;56.88;100629.56;4862696;28;98647;-62
2021/01/04 11:17:58;;;;;;;21.05;14.27;;;;;;;12.82;56.96;100626.31;4881954;28;98464;-62
2021/01/04 11:20:24;;;;;;;21.23;14.20;;;;;;;12.88;56.88;100625.19;4865365;28;97982;-63
2021/01/04 11:23:03;;;;;;;21.60;14.68;;;;;;;12.89;56.68;100621.38;4880882;28;99040;-62
2021/01/04 11:25:29;;;;;;;20.00;14.52;;;;;;;12.92;56.44;100626.25;4881941;28;98969;-62
2021/01/04 11:27:55;;;;;;;20.95;14.65;;;;;;;12.92;56.77;100624.34;4881772;28;98736;-62
2021/01/04 11:30:23;;;;;;;20.83;14.20;;;;;;;12.92;56.54;100631.66;4880272;28;97833;-62
2021/01/04 11:32:49;;;;;;;20.70;14.20;;;;;;;12.90;56.71;100623.84;4881335;28;98614;-62
2021/01/04 11:35:15;;;;;;;21.65;14.45;;;;;;;12.93;56.59;100641.38;4879431;28;127994;-62
2021/01/04 11:37:41;;;;;;;21.50;14.88;;;;;;;12.92;56.81;100632.47;4880992;28;113412;-62
2021/01/04 11:40:10;;;;;;;21.63;14.13;;;;;;;12.92;56.61;100628.94;4881816;28;98054;-62
2021/01/04 11:42:36;;;;;;;21.40;14.70;;;;;;;12.94;56.56;100633.00;4877264;28;98388;-61
2021/01/04 11:45:07;;;;;;;21.23;15.05;;;;;;;12.91;56.68;100625.44;4896556;28;117027;-62
2021/01/04 11:47:33;;;;;;;22.02;15.30;;;;;;;12.93;56.61;100625.16;4896932;28;97700;-61
2021/01/04 11:49:59;;;;;;;22.83;14.45;;;;;;;12.93;56.83;100622.44;4884116;28;97962;-61
2021/01/04 11:52:25;;;;;;;21.05;15.07;;;;;;;12.91;56.45;100620.03;4881018;28;99407;-62
2021/01/04 11:54:51;;;;;;;22.00;15.18;;;;;;;12.92;56.96;100618.13;4879983;28;127954;-62
2021/01/04 11:57:17;;;;;;;23.95;15.85;;;;;;;12.92;57.00;100624.34;4880158;28;127168;-62
2021/01/04 11:59:43;;;;;;;21.33;15.20;;;;;;;12.92;56.81;100623.53;4886567;28;97900;-62
2021/01/04 12:02:09;;;;;;;23.13;15.23;;;;;;;12.93;56.52;100623.28;4881610;28;128053;-62
2021/01/04 12:04:36;;;;;;;22.92;15.27;;;;;;;12.93;56.60;100617.88;4899370;28;124860;-62
2021/01/04 12:07:02;;;;;;;22.27;15.48;;;;;;;12.92;56.46;100605.41;4899898;28;109123;-62
2021/01/04 12:09:28;;;;;;;23.55;15.13;;;;;;;12.92;56.55;100608.13;4898432;28;97920;-61
2021/01/04 12:11:54;;;;;;;21.50;14.85;;;;;;;12.91;56.73;100614.63;4879819;28;127532;-62
2021/01/04 12:14:20;;;;;;;22.58;15.63;;;;;;;12.90;57.07;100615.72;4880515;28;128199;-62